createdAt,value
2023-12-15T00:01:03.028Z,25.33
2023-12-15T00:03:47.017Z,18.63
2023-12-15T00:06:13.939Z,15.37
2023-12-15T00:08:41.921Z,13.03
2023-12-15T00:11:09.477Z,14.50
2023-12-15T00:13:36.441Z,13.87
2023-12-15T00:16:03.496Z,14.03
2023-12-15T00:18:30.041Z,14.50
2023-12-15T00:20:56.793Z,14.17
2023-12-15T00:23:23.232Z,13.73
2023-12-15T00:25:50.050Z,13.47
2023-12-15T00:28:16.674Z,13.00
2023-12-15T00:30:43.528Z,13.97
2023-12-15T00:33:10.070Z,13.17
2023-12-15T00:35:36.902Z,13.40
2023-12-15T00:38:03.490Z,12.73
2023-12-15T00:40:30.416Z,12.97
2023-12-15T00:42:56.889Z,12.57
2023-12-15T00:45:23.731Z,13.07
2023-12-15T00:47:50.492Z,12.43
2023-12-15T00:50:17.466Z,12.77
2023-12-15T00:52:43.818Z,13.40
2023-12-15T00:55:10.611Z,12.67
2023-12-15T00:57:37.177Z,13.40
2023-12-15T01:00:04.873Z,14.37
2023-12-15T01:02:31.483Z,14.77
2023-12-15T01:04:58.361Z,13.10
2023-12-15T01:07:25.204Z,13.07
2023-12-15T01:09:51.928Z,13.33
2023-12-15T01:12:18.288Z,13.17
2023-12-15T01:14:45.332Z,14.20
2023-12-15T01:17:11.795Z,14.10
2023-12-15T01:19:38.542Z,13.13
2023-12-15T01:22:04.933Z,14.33
2023-12-15T01:24:31.636Z,12.63
2023-12-15T01:26:58.032Z,20.53
2023-12-15T01:29:24.726Z,25.40
2023-12-15T01:31:51.411Z,23.70
2023-12-15T01:34:18.191Z,16.17
2023-12-15T01:36:44.606Z,13.13
2023-12-15T01:39:11.345Z,12.33
2023-12-15T01:41:37.776Z,11.77
2023-12-15T01:44:04.617Z,10.93
2023-12-15T01:46:31.170Z,11.20
2023-12-15T01:48:58.774Z,27.37
2023-12-15T01:51:26.398Z,48.83
2023-12-15T01:53:53.140Z,44.27
2023-12-15T01:56:19.639Z,36.63
2023-12-15T01:58:46.351Z,21.53
2023-12-15T02:01:12.946Z,19.83
2023-12-15T02:03:40.470Z,27.03
2023-12-15T02:06:07.179Z,23.60
2023-12-15T02:08:34.033Z,17.50
2023-12-15T02:11:00.577Z,14.80
2023-12-15T02:13:28.009Z,14.43
2023-12-15T02:15:54.677Z,14.03
2023-12-15T02:18:21.511Z,12.30
2023-12-15T02:20:48.013Z,10.47
2023-12-15T02:23:14.799Z,11.50
2023-12-15T02:25:41.267Z,11.53
2023-12-15T02:28:08.083Z,12.23
2023-12-15T02:30:34.529Z,11.27
2023-12-15T02:33:01.430Z,10.17
2023-12-15T02:35:28.085Z,9.70
2023-12-15T02:37:54.923Z,7.97
2023-12-15T02:40:21.322Z,8.13
2023-12-15T02:42:48.049Z,8.13
2023-12-15T02:45:14.535Z,8.63
2023-12-15T02:47:41.863Z,10.37
2023-12-15T02:50:11.374Z,9.60
2023-12-15T02:52:38.113Z,9.17
2023-12-15T02:55:05.110Z,9.43
2023-12-15T02:57:31.875Z,9.23
2023-12-15T02:59:58.296Z,13.27
2023-12-15T03:02:25.068Z,10.27
2023-12-15T03:04:51.457Z,8.47
2023-12-15T03:07:18.265Z,8.80
2023-12-15T03:09:44.593Z,8.07
2023-12-15T03:12:11.290Z,8.83
2023-12-15T03:14:37.659Z,8.50
2023-12-15T03:17:05.018Z,10.07
2023-12-15T03:19:32.484Z,9.67
2023-12-15T03:21:59.199Z,9.77
2023-12-15T03:24:25.598Z,9.43
2023-12-15T03:26:52.240Z,9.17
2023-12-15T03:29:18.720Z,9.13
2023-12-15T03:31:45.587Z,9.00
2023-12-15T03:34:12.061Z,8.30
2023-12-15T03:36:39.278Z,9.20
2023-12-15T03:39:06.572Z,8.50
2023-12-15T03:41:33.413Z,7.63
2023-12-15T03:44:00.261Z,7.57
2023-12-15T03:46:27.037Z,7.83
2023-12-15T03:48:53.750Z,8.33
2023-12-15T03:51:20.430Z,8.90
2023-12-15T03:53:46.821Z,9.10
2023-12-15T03:56:13.810Z,9.10
2023-12-15T03:58:40.254Z,8.37
2023-12-15T04:01:07.006Z,9.03
2023-12-15T04:03:33.510Z,8.57
2023-12-15T04:06:02.412Z,8.83
2023-12-15T04:08:29.079Z,7.77
2023-12-15T04:10:56.963Z,8.47
2023-12-15T04:13:23.970Z,7.70
2023-12-15T04:15:55.191Z,7.50
2023-12-15T04:18:23.361Z,7.73
2023-12-15T04:20:50.353Z,8.17
2023-12-15T04:23:16.924Z,9.67
2023-12-15T04:25:43.872Z,10.20
2023-12-15T04:28:10.498Z,9.67
2023-12-15T04:30:37.480Z,8.40
2023-12-15T04:33:04.137Z,7.83
2023-12-15T04:35:31.447Z,8.40
2023-12-15T04:37:58.188Z,9.07
2023-12-15T04:40:25.363Z,9.10
2023-12-15T04:42:52.271Z,9.40
2023-12-15T04:45:19.296Z,9.23
2023-12-15T04:47:46.079Z,8.93
2023-12-15T04:50:13.069Z,10.10
2023-12-15T04:52:39.585Z,9.57
2023-12-15T04:55:06.716Z,9.23
2023-12-15T04:57:33.554Z,8.90
2023-12-15T05:00:00.504Z,8.20
2023-12-15T05:02:26.939Z,7.67
2023-12-15T05:04:53.896Z,7.73
2023-12-15T05:07:20.388Z,8.63
2023-12-15T05:09:47.710Z,8.90
2023-12-15T05:12:14.080Z,8.10
2023-12-15T05:14:40.829Z,8.10
2023-12-15T05:17:07.224Z,8.37
2023-12-15T05:19:33.986Z,7.87
2023-12-15T05:22:00.364Z,7.50
2023-12-15T05:24:27.177Z,8.50
2023-12-15T05:26:53.697Z,8.10
2023-12-15T05:29:20.321Z,8.83
2023-12-15T05:31:46.889Z,7.60
2023-12-15T05:34:14.673Z,8.73
2023-12-15T05:36:41.553Z,8.20
2023-12-15T05:39:08.455Z,8.20
2023-12-15T05:44:07.715Z,8.37
2023-12-15T05:46:36.080Z,7.37
2023-12-15T05:49:03.163Z,8.03
2023-12-15T05:51:29.725Z,7.73
2023-12-15T05:53:58.507Z,7.87
2023-12-15T05:56:25.215Z,8.27
2023-12-15T05:58:52.449Z,8.77
2023-12-15T06:01:18.800Z,8.50
2023-12-15T06:03:45.945Z,8.10
2023-12-15T06:06:12.762Z,8.50
2023-12-15T06:08:39.622Z,8.50
2023-12-15T06:11:06.313Z,7.97
2023-12-15T06:13:33.056Z,9.10
2023-12-15T06:15:59.910Z,8.13
2023-12-15T06:18:27.117Z,7.70
2023-12-15T06:20:53.738Z,7.30
2023-12-15T06:23:21.936Z,8.17
2023-12-15T06:25:48.812Z,8.70
2023-12-15T06:28:15.487Z,8.27
2023-12-15T06:30:42.211Z,8.60
2023-12-15T06:33:09.089Z,8.13
2023-12-15T06:35:35.758Z,8.67
2023-12-15T06:38:02.943Z,8.90
2023-12-15T06:40:29.609Z,8.50
2023-12-15T06:42:56.887Z,7.83
2023-12-15T06:45:23.442Z,8.77
2023-12-15T06:47:50.679Z,7.93
2023-12-15T06:50:17.558Z,8.53
2023-12-15T06:52:45.365Z,8.60
2023-12-15T06:55:11.878Z,9.00
2023-12-15T06:57:39.179Z,8.10
2023-12-15T07:00:07.388Z,8.37
2023-12-15T07:02:34.949Z,8.23
2023-12-15T07:05:01.843Z,8.30
2023-12-15T07:07:29.058Z,8.37
2023-12-15T07:09:55.608Z,7.83
2023-12-15T07:12:22.319Z,7.77
2023-12-15T07:14:48.721Z,7.73
2023-12-15T07:17:16.650Z,7.90
2023-12-15T07:19:43.435Z,7.07
2023-12-15T07:22:10.388Z,7.80
2023-12-15T07:24:36.993Z,8.20
2023-12-15T07:27:04.979Z,8.63
2023-12-15T07:29:31.652Z,8.27
2023-12-15T07:32:02.025Z,7.97
2023-12-15T07:34:28.552Z,8.60
2023-12-15T07:36:56.326Z,8.27
2023-12-15T07:39:23.011Z,8.37
2023-12-15T07:41:49.933Z,9.03
2023-12-15T07:44:17.119Z,9.03
2023-12-15T07:46:44.599Z,9.20
2023-12-15T07:49:11.401Z,9.40
2023-12-15T07:51:38.470Z,9.10
2023-12-15T07:54:05.421Z,8.07
2023-12-15T07:56:33.977Z,8.90
2023-12-15T07:59:00.799Z,8.87
2023-12-15T08:01:27.766Z,8.40
2023-12-15T08:03:54.491Z,9.03
2023-12-15T08:06:21.651Z,9.10
2023-12-15T08:08:48.465Z,9.60
2023-12-15T08:11:15.559Z,8.30
2023-12-15T08:13:42.354Z,7.90
2023-12-15T08:16:13.140Z,8.63
2023-12-15T08:18:42.358Z,8.40
2023-12-15T08:21:11.208Z,8.47
2023-12-15T08:23:38.090Z,8.63
2023-12-15T08:26:05.512Z,8.90
2023-12-15T08:28:32.283Z,9.77
2023-12-15T08:30:59.612Z,9.60
2023-12-15T08:33:28.174Z,9.23
2023-12-15T08:35:55.065Z,9.83
2023-12-15T08:38:21.640Z,9.93
2023-12-15T08:40:48.659Z,11.10
2023-12-15T08:43:15.320Z,10.13
2023-12-15T08:45:42.264Z,10.13
2023-12-15T08:48:09.048Z,10.43
2023-12-15T08:50:36.286Z,11.67
2023-12-15T08:53:02.941Z,9.73
2023-12-15T08:55:29.887Z,9.57
2023-12-15T08:57:56.732Z,10.03
2023-12-15T09:00:24.004Z,8.77
2023-12-15T09:02:53.039Z,9.57
2023-12-15T09:05:38.063Z,10.60
2023-12-15T09:08:10.762Z,11.63
2023-12-15T09:10:42.978Z,11.97
2023-12-15T09:13:11.065Z,9.00
2023-12-15T09:15:38.161Z,9.43
2023-12-15T09:18:06.125Z,8.40
2023-12-15T09:20:34.160Z,8.93
2023-12-15T09:23:06.161Z,9.10
2023-12-15T09:25:33.243Z,9.60
2023-12-15T09:27:59.752Z,9.63
2023-12-15T09:30:26.541Z,9.20
2023-12-15T09:32:53.181Z,9.50
2023-12-15T09:35:20.374Z,9.33
2023-12-15T09:37:46.961Z,8.57
2023-12-15T09:40:14.809Z,9.70
2023-12-15T09:42:41.514Z,9.73
2023-12-15T09:45:08.761Z,9.60
2023-12-15T09:47:38.397Z,9.13
2023-12-15T09:50:08.171Z,8.67
2023-12-15T09:52:37.500Z,10.50
2023-12-15T09:55:06.866Z,10.47
2023-12-15T09:57:34.822Z,9.77
2023-12-15T10:00:01.677Z,9.23
2023-12-15T10:02:30.958Z,8.50
2023-12-15T10:04:58.342Z,10.30
2023-12-15T10:07:24.929Z,9.37
2023-12-15T10:09:52.649Z,10.10
2023-12-15T10:12:19.617Z,9.47
2023-12-15T10:14:46.640Z,8.93
2023-12-15T10:17:14.105Z,9.90
2023-12-15T10:19:41.027Z,8.77
2023-12-15T10:22:07.619Z,10.50
2023-12-15T10:24:35.627Z,10.80
2023-12-15T10:27:04.166Z,10.30
2023-12-15T10:29:31.134Z,9.10
2023-12-15T10:31:58.617Z,9.80
2023-12-15T10:34:27.800Z,9.60
2023-12-15T10:36:55.092Z,9.13
2023-12-15T10:39:23.073Z,10.17
2023-12-15T10:41:52.259Z,10.33
2023-12-15T10:44:21.293Z,10.77
2023-12-15T10:46:47.844Z,10.53
2023-12-15T10:49:17.200Z,11.23
2023-12-15T10:51:44.160Z,10.03
2023-12-15T10:54:11.198Z,10.70
2023-12-15T10:56:38.696Z,10.63
2023-12-15T10:59:07.322Z,10.60
2023-12-15T11:01:36.471Z,10.60
2023-12-15T11:04:20.109Z,10.60
2023-12-15T11:06:47.157Z,10.30
2023-12-15T11:09:39.797Z,10.50
2023-12-15T11:12:32.051Z,10.80
2023-12-15T11:15:04.274Z,10.47
2023-12-15T11:17:31.986Z,10.70
2023-12-15T11:20:03.903Z,11.20
2023-12-15T11:22:41.125Z,9.57
2023-12-15T11:25:09.061Z,10.83
2023-12-15T11:28:10.079Z,10.70
2023-12-15T11:30:42.756Z,11.00
2023-12-15T11:33:22.993Z,11.20
2023-12-15T11:36:01.915Z,10.97
2023-12-15T11:38:29.961Z,10.57
2023-12-15T11:40:57.836Z,11.80
2023-12-15T11:43:24.623Z,11.50
2023-12-15T11:45:53.195Z,11.47
2023-12-15T11:48:22.187Z,11.37
2023-12-15T11:50:48.940Z,11.33
2023-12-15T11:53:16.182Z,11.67
2023-12-15T11:55:45.165Z,11.23
2023-12-15T11:58:11.492Z,10.30
2023-12-15T12:00:38.710Z,10.77
2023-12-15T12:03:05.352Z,10.87
2023-12-15T12:05:32.989Z,11.57
2023-12-15T12:08:01.135Z,11.23
2023-12-15T12:10:31.625Z,11.77
2023-12-15T12:12:59.090Z,11.00
2023-12-15T12:15:28.104Z,10.77
2023-12-15T12:17:56.317Z,11.33
2023-12-15T12:20:28.127Z,10.87
2023-12-15T12:22:56.348Z,10.77
2023-12-15T12:25:23.323Z,11.37
2023-12-15T12:27:51.574Z,11.60
2023-12-15T12:30:19.108Z,11.27
2023-12-15T12:32:47.627Z,12.30
2023-12-15T12:35:14.509Z,11.13
2023-12-15T12:37:41.036Z,10.67
2023-12-15T12:40:08.680Z,10.77
2023-12-15T12:42:35.292Z,10.90
2023-12-15T12:45:03.041Z,11.80
2023-12-15T12:47:29.859Z,11.47
2023-12-15T12:49:57.331Z,12.37
2023-12-15T12:52:23.758Z,11.17
2023-12-15T12:54:50.744Z,12.00
2023-12-15T12:57:17.373Z,11.80
2023-12-15T12:59:45.378Z,11.97
2023-12-15T13:02:18.712Z,11.87
2023-12-15T13:04:50.317Z,11.73
2023-12-15T13:07:17.066Z,12.47
2023-12-15T13:09:45.054Z,12.30
2023-12-15T13:12:18.034Z,11.87
2023-12-15T13:14:48.362Z,12.30
2023-12-15T13:17:16.404Z,12.33
2023-12-15T13:19:43.211Z,11.20
2023-12-15T13:22:09.668Z,10.93
2023-12-15T13:24:46.504Z,11.73
2023-12-15T13:27:22.293Z,11.30
2023-12-15T13:29:49.462Z,11.73
2023-12-15T13:32:18.056Z,10.83
2023-12-15T13:34:48.324Z,10.57
2023-12-15T13:37:15.553Z,11.10
2023-12-15T13:39:42.373Z,10.50
2023-12-15T13:42:08.882Z,10.60
2023-12-15T13:44:36.748Z,9.73
2023-12-15T13:47:04.123Z,10.30
2023-12-15T13:49:32.533Z,10.80
2023-12-15T13:52:00.290Z,10.20
2023-12-15T13:54:28.106Z,11.60
2023-12-15T13:56:57.301Z,11.77
2023-12-15T13:59:24.778Z,10.40
2023-12-15T14:01:51.516Z,10.77
2023-12-15T14:04:18.801Z,10.63
2023-12-15T14:06:50.402Z,10.00
2023-12-15T14:09:17.990Z,10.23
2023-12-15T14:11:44.671Z,10.20
2023-12-15T14:14:12.004Z,10.10
2023-12-15T14:16:44.445Z,10.37
2023-12-15T14:19:18.479Z,10.63
2023-12-15T14:21:46.618Z,10.23
2023-12-15T14:24:17.457Z,11.40
2023-12-15T14:26:45.005Z,9.97
2023-12-15T14:29:12.206Z,10.50
2023-12-15T14:31:38.859Z,10.50
2023-12-15T14:34:06.042Z,10.30
2023-12-15T14:36:32.988Z,10.20
2023-12-15T14:39:00.254Z,10.57
2023-12-15T14:41:27.814Z,11.70
2023-12-15T14:43:57.929Z,11.33
2023-12-15T14:46:24.600Z,10.57
2023-12-15T14:48:51.801Z,10.53
2023-12-15T14:51:18.782Z,10.60
2023-12-15T14:53:45.890Z,10.57
2023-12-15T14:56:14.864Z,10.17
2023-12-15T14:58:41.763Z,10.87
2023-12-15T15:01:08.907Z,10.33
2023-12-15T15:03:36.269Z,10.13
2023-12-15T15:06:04.088Z,9.83
2023-12-15T15:08:31.500Z,9.63
2023-12-15T15:10:59.205Z,10.30
2023-12-15T15:13:26.629Z,9.60
2023-12-15T15:15:53.415Z,9.47
2023-12-15T15:18:21.387Z,9.70
2023-12-15T15:20:48.469Z,9.53
2023-12-15T15:23:17.175Z,10.00
2023-12-15T15:25:43.925Z,10.03
2023-12-15T15:28:11.029Z,9.30
2023-12-15T15:30:39.032Z,9.33
2023-12-15T15:33:06.221Z,9.97
2023-12-15T15:35:33.364Z,9.50
2023-12-15T15:38:00.653Z,10.10
2023-12-15T15:40:28.029Z,10.63
2023-12-15T15:42:55.397Z,9.07
2023-12-15T15:45:22.443Z,11.57
2023-12-15T15:47:50.839Z,10.53
2023-12-15T15:50:18.038Z,10.63
2023-12-15T15:52:44.895Z,11.50
2023-12-15T15:55:15.079Z,10.50
2023-12-15T15:57:42.494Z,11.23
2023-12-15T16:00:09.781Z,11.27
2023-12-15T16:02:40.184Z,10.57
2023-12-15T16:05:07.399Z,10.80
2023-12-15T16:07:35.332Z,10.43
2023-12-15T16:10:02.676Z,11.03
2023-12-15T16:12:29.969Z,11.53
2023-12-15T16:14:56.618Z,11.37
2023-12-15T16:17:23.618Z,12.00
2023-12-15T16:19:50.295Z,11.83
2023-12-15T16:22:17.471Z,12.10
2023-12-15T16:24:45.878Z,12.73
2023-12-15T16:27:13.317Z,12.27
2023-12-15T16:29:39.800Z,12.53
2023-12-15T16:32:07.211Z,13.53
2023-12-15T16:34:34.648Z,12.67
2023-12-15T16:37:02.184Z,13.00
2023-12-15T16:39:28.991Z,12.00
2023-12-15T16:41:56.167Z,12.97
2023-12-15T16:44:23.698Z,12.93
2023-12-15T16:46:50.595Z,11.90
2023-12-15T16:49:17.143Z,11.60
2023-12-15T16:51:46.092Z,12.60
2023-12-15T16:54:12.772Z,13.07
2023-12-15T16:56:40.033Z,12.90
2023-12-15T16:59:06.998Z,12.70
2023-12-15T17:01:33.871Z,13.27
2023-12-15T17:04:00.573Z,11.67
2023-12-15T17:06:27.556Z,11.97
2023-12-15T17:08:54.301Z,11.30
2023-12-15T17:11:21.105Z,11.87
2023-12-15T17:13:47.717Z,12.30
2023-12-15T17:16:21.485Z,12.17
2023-12-15T17:18:49.507Z,12.80
2023-12-15T17:21:16.690Z,13.63
2023-12-15T17:23:43.695Z,12.47
2023-12-15T17:26:15.768Z,12.83
2023-12-15T17:28:42.615Z,12.07
2023-12-15T17:31:11.656Z,11.83
2023-12-15T17:33:38.737Z,12.00
2023-12-15T17:36:06.152Z,13.07
2023-12-15T17:38:32.789Z,13.27
2023-12-15T17:40:59.673Z,13.50
2023-12-15T17:43:27.526Z,13.63
2023-12-15T17:45:54.357Z,13.57
2023-12-15T17:48:21.774Z,13.10
2023-12-15T17:50:49.557Z,12.77
2023-12-15T17:53:16.300Z,14.83
2023-12-15T17:55:43.895Z,13.83
2023-12-15T17:58:12.244Z,14.70
2023-12-15T18:00:42.426Z,14.63
2023-12-15T18:03:10.325Z,14.87
2023-12-15T18:05:37.555Z,14.70
2023-12-15T18:08:04.597Z,13.90
2023-12-15T18:10:31.622Z,15.17
2023-12-15T18:12:58.313Z,16.10
2023-12-15T18:15:25.201Z,15.97
2023-12-15T18:17:52.188Z,15.73
2023-12-15T18:20:19.074Z,16.17
2023-12-15T18:22:46.045Z,16.67
2023-12-15T18:25:16.171Z,16.23
2023-12-15T18:27:44.449Z,16.20
2023-12-15T18:30:14.554Z,15.90
2023-12-15T18:32:42.206Z,17.13
2023-12-15T18:35:09.591Z,17.53
2023-12-15T18:37:36.323Z,17.23
2023-12-15T18:40:03.832Z,17.67
2023-12-15T18:42:30.525Z,17.73
2023-12-15T18:44:57.394Z,16.20
2023-12-15T18:47:25.296Z,16.00
2023-12-15T18:49:52.145Z,16.03
2023-12-15T18:52:19.733Z,16.80
2023-12-15T18:54:47.936Z,17.07
2023-12-15T18:57:15.820Z,17.10
2023-12-15T18:59:43.158Z,17.60
2023-12-15T19:02:10.139Z,17.47
2023-12-15T19:04:37.226Z,15.83
2023-12-15T19:07:04.534Z,18.33
2023-12-15T19:09:31.608Z,19.00
2023-12-15T19:11:58.414Z,15.83
2023-12-15T19:14:25.464Z,17.90
2023-12-15T19:16:52.182Z,15.67
2023-12-15T19:19:19.214Z,17.37
2023-12-15T19:21:46.290Z,16.93
2023-12-15T19:24:13.197Z,15.63
2023-12-15T19:26:40.626Z,15.60
2023-12-15T19:29:08.228Z,16.73
2023-12-15T19:31:37.896Z,15.97
2023-12-15T19:34:05.664Z,16.23
2023-12-15T19:36:37.248Z,18.17
2023-12-15T19:39:07.818Z,16.40
2023-12-15T19:41:35.095Z,14.07
2023-12-15T19:44:05.490Z,14.97
2023-12-15T19:46:38.315Z,14.73
2023-12-15T19:49:06.245Z,16.13
2023-12-15T19:51:32.830Z,18.07
2023-12-15T19:54:05.712Z,15.33
2023-12-15T19:56:41.248Z,15.87
2023-12-15T19:59:09.177Z,17.40
2023-12-15T20:01:36.039Z,17.40
2023-12-15T20:04:04.468Z,16.10
2023-12-15T20:06:33.366Z,14.87
2023-12-15T20:09:04.560Z,16.27
2023-12-15T20:11:36.982Z,16.70
2023-12-15T20:14:05.999Z,15.70
2023-12-15T20:16:33.334Z,16.13
2023-12-15T20:19:01.230Z,15.60
2023-12-15T20:21:32.576Z,14.90
2023-12-15T20:23:59.751Z,14.83
2023-12-15T20:26:27.095Z,15.20
2023-12-15T20:28:54.557Z,17.30
2023-12-15T20:31:22.638Z,14.80
2023-12-15T20:33:49.764Z,15.43
2023-12-15T20:36:19.243Z,13.63
2023-12-15T20:38:46.334Z,14.70
2023-12-15T20:41:21.003Z,13.47
2023-12-15T20:43:49.047Z,14.63
2023-12-15T20:46:19.281Z,14.43
2023-12-15T20:48:46.677Z,14.40
2023-12-15T20:51:23.602Z,14.63
2023-12-15T20:53:50.321Z,13.93
2023-12-15T20:56:27.346Z,13.00
2023-12-15T20:58:55.106Z,12.93
2023-12-15T21:01:22.288Z,14.83
2023-12-15T21:03:49.168Z,13.93
2023-12-15T21:06:23.646Z,11.73
2023-12-15T21:08:54.634Z,13.67
2023-12-15T21:11:21.925Z,12.37
2023-12-15T21:13:51.616Z,12.27
2023-12-15T21:16:26.165Z,14.03
2023-12-15T21:18:53.501Z,12.50
2023-12-15T21:21:31.557Z,13.97
2023-12-15T21:23:58.708Z,11.77
2023-12-15T21:26:26.080Z,11.13
2023-12-15T21:28:54.744Z,12.53
2023-12-15T21:31:22.067Z,10.93
2023-12-15T21:33:49.308Z,11.37
2023-12-15T21:36:16.610Z,12.40
2023-12-15T21:38:43.761Z,11.97
2023-12-15T21:41:15.015Z,12.67
2023-12-15T21:43:42.067Z,12.00
2023-12-15T21:46:09.158Z,12.07
2023-12-15T21:48:35.788Z,11.30
2023-12-15T21:51:03.176Z,13.83
2023-12-15T21:53:29.945Z,13.53
2023-12-15T21:55:57.031Z,14.00
2023-12-15T21:58:24.041Z,12.33
2023-12-15T22:00:51.429Z,13.43
2023-12-15T22:03:18.455Z,12.27
2023-12-15T22:05:46.811Z,11.90
2023-12-15T22:08:13.536Z,12.53
2023-12-15T22:10:40.842Z,11.67
2023-12-15T22:13:08.616Z,13.27
2023-12-15T22:15:36.280Z,13.60
2023-12-15T22:18:03.330Z,13.20
2023-12-15T22:20:31.033Z,13.60
2023-12-15T22:22:57.939Z,13.03
2023-12-15T22:25:25.217Z,13.77
2023-12-15T22:27:52.230Z,12.87
2023-12-15T22:30:24.705Z,12.50
2023-12-15T22:32:52.900Z,13.23
2023-12-15T22:35:20.862Z,13.30
2023-12-15T22:37:47.858Z,13.30
2023-12-15T22:40:16.065Z,13.33
2023-12-15T22:42:43.982Z,13.00
2023-12-15T22:45:11.673Z,14.77
2023-12-15T22:47:39.706Z,14.90
2023-12-15T22:50:08.723Z,15.60
2023-12-15T22:52:36.042Z,14.03
2023-12-15T22:55:03.868Z,14.87
2023-12-15T22:57:30.523Z,15.10
2023-12-15T22:59:57.380Z,14.43
2023-12-15T23:02:24.172Z,13.57
2023-12-15T23:04:51.569Z,13.93
2023-12-15T23:07:18.931Z,13.70
2023-12-15T23:09:47.501Z,15.20
2023-12-15T23:12:14.041Z,14.33
2023-12-15T23:14:41.847Z,14.10
2023-12-15T23:17:09.130Z,12.70
2023-12-15T23:19:36.682Z,14.17
2023-12-15T23:22:03.507Z,13.57
2023-12-15T23:24:32.769Z,13.43
2023-12-15T23:27:00.104Z,13.53
2023-12-15T23:29:27.519Z,14.03
2023-12-15T23:31:56.599Z,13.23
2023-12-15T23:34:24.499Z,13.17
2023-12-15T23:36:51.360Z,14.07
2023-12-15T23:39:18.572Z,14.43
2023-12-15T23:41:47.940Z,15.23
2023-12-15T23:44:14.944Z,15.00
2023-12-15T23:46:42.082Z,13.80
2023-12-15T23:49:08.889Z,13.57
2023-12-15T23:51:35.335Z,13.90
2023-12-15T23:54:03.709Z,14.57
2023-12-15T23:56:30.500Z,15.27
2023-12-15T23:58:57.202Z,14.30
